Time;durP1;ratioP1;P1;durP2;ratioP2;P2;SDS_P1;SDS_P2;PMS_P1;PMS_P2;Temp;Humidity;BMP_temperature;BMP_pressure;BME280_temperature;BME280_humidity;BME280_pressure;Samples;Min_cycle;Max_cycle;Signal;HPM_P1;HPM_P2
2023/04/10 00:00:40;;;;;;;11.73;9.07;;;;;;;;;;5053979;28;20357;-64
2023/04/10 00:03:08;;;;;;;10.37;8.27;;;;;;;;;;5053857;28;20215;-64
2023/04/10 00:05:36;;;;;;;14.50;9.93;;;;;;;;;;5055833;28;20422;-61
2023/04/10 00:08:04;;;;;;;12.13;9.00;;;;;;;;;;5057439;28;20197;-65
2023/04/10 00:10:32;;;;;;;13.13;9.07;;;;;;;;;;5061667;28;20787;-63
2023/04/10 00:13:02;;;;;;;12.50;9.50;;;;;;;;;;5065666;28;20204;-62
2023/04/10 00:15:30;;;;;;;12.80;9.13;;;;;;;;;;5071380;28;20304;-63
2023/04/10 00:17:57;;;;;;;12.27;8.77;;;;;;;;;;5059137;28;20315;-62
2023/04/10 00:20:25;;;;;;;12.93;9.33;;;;;;;;;;5061368;28;20320;-63
2023/04/10 00:22:53;;;;;;;12.03;8.70;;;;;;;;;;5047451;28;20204;-62
2023/04/10 00:25:22;;;;;;;11.33;8.80;;;;;;;;;;5038868;28;20214;-61
2023/04/10 00:27:49;;;;;;;11.47;8.30;;;;;;;;;;5059591;28;20209;-64
2023/04/10 00:30:17;;;;;;;11.17;8.50;;;;;;;;;;5065501;28;20239;-62
2023/04/10 00:32:44;;;;;;;10.50;9.00;;;;;;;;;;5058307;28;20236;-64
2023/04/10 00:35:12;;;;;;;10.57;8.50;;;;;;;;;;5058624;28;20209;-64
2023/04/10 00:37:39;;;;;;;10.07;8.60;;;;;;;;;;5060306;28;20305;-65
2023/04/10 00:40:07;;;;;;;9.57;7.97;;;;;;;;;;5036941;28;20228;-64
2023/04/10 00:42:35;;;;;;;9.60;8.17;;;;;;;;;;5034277;28;20201;-65
2023/04/10 00:45:03;;;;;;;10.00;8.20;;;;;;;;;;5047740;28;20205;-65
2023/04/10 00:47:32;;;;;;;10.10;8.07;;;;;;;;;;5050876;28;20215;-65
2023/04/10 00:49:59;;;;;;;9.27;7.90;;;;;;;;;;5039708;28;20225;-65
2023/04/10 00:52:26;;;;;;;9.17;7.90;;;;;;;;;;5029357;28;20294;-65
2023/04/10 00:54:54;;;;;;;10.90;8.30;;;;;;;;;;5037485;28;20296;-64
2023/04/10 00:57:23;;;;;;;10.33;7.90;;;;;;;;;;5047320;28;20943;-65
2023/04/10 00:59:51;;;;;;;11.03;8.10;;;;;;;;;;5036401;28;21217;-65
2023/04/10 01:02:19;;;;;;;13.00;8.27;;;;;;;;;;5032571;28;20276;-64
2023/04/10 01:04:47;;;;;;;11.50;8.57;;;;;;;;;;5056709;28;20299;-63
2023/04/10 01:07:41;;;;;;;9.97;7.77;;;;;;;;;;5054579;28;20308;-65
2023/04/10 01:10:13;;;;;;;10.37;8.23;;;;;;;;;;5030907;28;20236;-62
2023/04/10 01:12:59;;;;;;;9.67;8.03;;;;;;;;;;5053166;28;20208;-64
2023/04/10 01:15:28;;;;;;;9.70;7.70;;;;;;;;;;5052336;28;20212;-63
2023/04/10 01:17:58;;;;;;;10.23;7.67;;;;;;;;;;5047463;28;20283;-63
2023/04/10 01:20:31;;;;;;;9.70;7.37;;;;;;;;;;5043133;28;20228;-64
2023/04/10 01:23:15;;;;;;;8.57;7.07;;;;;;;;;;5038520;28;20208;-65
2023/04/10 01:25:42;;;;;;;9.73;7.37;;;;;;;;;;5041373;28;20200;-64
2023/04/10 01:28:20;;;;;;;7.70;6.73;;;;;;;;;;5049698;28;20211;-64
2023/04/10 01:30:50;;;;;;;9.40;7.43;;;;;;;;;;5049760;28;20483;-64
2023/04/10 01:33:19;;;;;;;8.83;7.27;;;;;;;;;;5047989;28;20331;-65
2023/04/10 01:35:51;;;;;;;7.90;6.90;;;;;;;;;;5034938;28;20929;-64
2023/04/10 01:38:21;;;;;;;7.93;6.30;;;;;;;;;;5040092;28;20250;-64
2023/04/10 01:40:51;;;;;;;7.47;6.60;;;;;;;;;;5028017;28;20220;-65
2023/04/10 01:43:20;;;;;;;9.40;6.80;;;;;;;;;;5047794;28;20702;-65
2023/04/10 01:45:49;;;;;;;8.27;6.87;;;;;;;;;;5047420;28;20321;-65
2023/04/10 01:48:17;;;;;;;7.70;6.40;;;;;;;;;;5050545;28;20236;-65
2023/04/10 01:50:46;;;;;;;7.07;5.90;;;;;;;;;;5046268;28;20215;-62
2023/04/10 01:53:14;;;;;;;8.93;6.93;;;;;;;;;;5063104;28;20241;-64
2023/04/10 01:55:42;;;;;;;7.53;6.43;;;;;;;;;;5067056;28;20210;-64
2023/04/10 01:58:10;;;;;;;7.83;6.63;;;;;;;;;;5053788;28;20296;-64
2023/04/10 02:00:38;;;;;;;6.93;6.23;;;;;;;;;;5044014;28;20323;-64
2023/04/10 02:03:07;;;;;;;8.43;6.30;;;;;;;;;;5041452;28;20221;-64
2023/04/10 02:05:40;;;;;;;7.83;6.23;;;;;;;;;;5036830;28;22335;-64
2023/04/10 02:08:08;;;;;;;8.03;6.43;;;;;;;;;;5053802;28;20228;-64
2023/04/10 02:10:48;;;;;;;8.33;6.53;;;;;;;;;;5074565;28;20230;-64
2023/04/10 02:13:19;;;;;;;7.47;5.73;;;;;;;;;;5067134;28;20233;-65
2023/04/10 02:15:47;;;;;;;7.53;6.10;;;;;;;;;;5079294;28;20244;-65
2023/04/10 02:18:15;;;;;;;7.50;5.90;;;;;;;;;;5044143;28;20231;-64
2023/04/10 02:20:43;;;;;;;7.00;6.30;;;;;;;;;;5035937;28;20233;-64
2023/04/10 02:23:11;;;;;;;6.70;5.70;;;;;;;;;;5035321;28;20310;-63
2023/04/10 02:25:38;;;;;;;6.13;5.53;;;;;;;;;;5045420;28;20243;-64
2023/04/10 02:28:05;;;;;;;7.20;5.80;;;;;;;;;;5058226;28;20304;-64
2023/04/10 02:30:33;;;;;;;7.17;5.87;;;;;;;;;;5041804;28;20526;-63
2023/04/10 02:33:01;;;;;;;7.87;5.80;;;;;;;;;;5047653;28;20237;-63
2023/04/10 02:35:28;;;;;;;6.53;5.70;;;;;;;;;;5055737;28;20222;-63
2023/04/10 02:37:55;;;;;;;6.83;5.50;;;;;;;;;;5051691;28;20636;-64
2023/04/10 02:40:23;;;;;;;6.00;5.40;;;;;;;;;;5051439;28;20793;-64
2023/04/10 02:42:51;;;;;;;5.80;5.07;;;;;;;;;;5050478;28;20304;-64
2023/04/10 02:45:18;;;;;;;6.37;5.53;;;;;;;;;;5050865;28;20211;-63
2023/04/10 02:47:45;;;;;;;6.43;5.73;;;;;;;;;;5043532;28;20220;-64
2023/04/10 02:50:13;;;;;;;6.47;5.83;;;;;;;;;;5028762;28;20229;-64
2023/04/10 02:52:40;;;;;;;7.20;5.47;;;;;;;;;;5046400;28;20950;-64
2023/04/10 02:55:08;;;;;;;6.53;5.70;;;;;;;;;;5051805;28;20237;-64
2023/04/10 02:57:35;;;;;;;6.60;5.90;;;;;;;;;;5033795;28;20201;-64
2023/04/10 03:00:04;;;;;;;6.10;5.47;;;;;;;;;;5053273;28;20239;-64
2023/04/10 03:02:31;;;;;;;6.93;5.73;;;;;;;;;;5039473;28;20233;-64
2023/04/10 03:05:01;;;;;;;7.43;6.20;;;;;;;;;;5047527;28;20204;-65
2023/04/10 03:07:28;;;;;;;8.40;6.53;;;;;;;;;;5048082;28;20290;-64
2023/04/10 03:09:55;;;;;;;7.10;5.80;;;;;;;;;;5033586;28;20315;-64
2023/04/10 03:12:23;;;;;;;6.80;5.90;;;;;;;;;;5041904;28;20284;-64
2023/04/10 03:14:51;;;;;;;6.00;5.40;;;;;;;;;;5033011;28;20201;-64
2023/04/10 03:17:18;;;;;;;7.00;5.87;;;;;;;;;;5042987;28;20353;-64
2023/04/10 03:19:45;;;;;;;7.33;5.90;;;;;;;;;;5047024;28;20318;-64
2023/04/10 03:22:13;;;;;;;6.73;5.87;;;;;;;;;;5031795;28;20346;-63
2023/04/10 03:24:40;;;;;;;6.87;5.87;;;;;;;;;;5027035;28;20623;-63
2023/04/10 03:27:08;;;;;;;6.37;5.77;;;;;;;;;;5052846;28;20314;-62
2023/04/10 03:29:35;;;;;;;6.93;5.83;;;;;;;;;;5034017;28;20358;-64
2023/04/10 03:32:02;;;;;;;6.70;6.00;;;;;;;;;;5048824;28;20304;-64
2023/04/10 03:34:29;;;;;;;6.73;5.93;;;;;;;;;;5056394;28;20805;-63
2023/04/10 03:36:57;;;;;;;7.40;6.00;;;;;;;;;;5026430;28;20819;-63
2023/04/10 03:39:24;;;;;;;6.63;5.80;;;;;;;;;;5054544;28;21015;-63
2023/04/10 03:41:51;;;;;;;6.60;6.00;;;;;;;;;;5046688;28;20233;-63
2023/04/10 03:44:19;;;;;;;8.77;6.53;;;;;;;;;;5050103;28;20204;-63
2023/04/10 03:46:46;;;;;;;6.37;5.67;;;;;;;;;;5053863;28;20208;-63
2023/04/10 03:49:15;;;;;;;6.20;5.60;;;;;;;;;;5032610;28;20225;-64
2023/04/10 03:51:42;;;;;;;6.40;5.70;;;;;;;;;;5054412;28;20208;-63
2023/04/10 03:54:10;;;;;;;7.27;5.73;;;;;;;;;;5052061;28;20279;-63
2023/04/10 03:56:37;;;;;;;6.23;5.37;;;;;;;;;;5031565;28;20209;-63
2023/04/10 03:59:04;;;;;;;6.87;5.93;;;;;;;;;;5047191;28;20363;-64
2023/04/10 04:01:32;;;;;;;6.67;5.70;;;;;;;;;;5043763;28;20455;-63
2023/04/10 04:03:59;;;;;;;7.07;6.37;;;;;;;;;;5039406;28;20331;-64
2023/04/10 04:06:28;;;;;;;7.17;5.83;;;;;;;;;;5040115;28;20213;-64
2023/04/10 04:08:55;;;;;;;6.13;5.47;;;;;;;;;;5052121;28;20237;-64
2023/04/10 04:11:22;;;;;;;6.47;5.33;;;;;;;;;;5075341;28;20212;-64
2023/04/10 04:13:50;;;;;;;6.97;5.67;;;;;;;;;;5081727;28;20202;-63
2023/04/10 04:16:19;;;;;;;7.00;6.30;;;;;;;;;;5082960;28;20209;-64
2023/04/10 04:18:46;;;;;;;7.00;5.70;;;;;;;;;;5049496;28;20280;-64
2023/04/10 04:21:14;;;;;;;6.03;5.43;;;;;;;;;;5044421;28;20366;-63
2023/04/10 04:23:42;;;;;;;5.87;5.27;;;;;;;;;;5055241;28;20324;-64
2023/04/10 04:26:09;;;;;;;7.10;5.40;;;;;;;;;;5053146;28;20707;-65
2023/04/10 04:28:37;;;;;;;5.93;5.20;;;;;;;;;;5051396;28;20347;-66
2023/04/10 04:31:05;;;;;;;5.67;4.87;;;;;;;;;;5055276;28;20236;-63
2023/04/10 04:33:32;;;;;;;6.20;5.47;;;;;;;;;;5057082;28;20273;-64
2023/04/10 04:36:00;;;;;;;6.87;5.53;;;;;;;;;;5048790;28;21546;-63
2023/04/10 04:38:27;;;;;;;5.77;4.73;;;;;;;;;;5055059;28;20220;-63
2023/04/10 04:40:55;;;;;;;5.80;5.20;;;;;;;;;;5052648;28;20217;-63
2023/04/10 04:43:23;;;;;;;6.10;5.27;;;;;;;;;;5045963;28;20233;-62
2023/04/10 04:45:50;;;;;;;5.70;5.07;;;;;;;;;;5049528;28;20303;-63
2023/04/10 04:48:17;;;;;;;6.07;4.90;;;;;;;;;;5049671;28;20260;-63
2023/04/10 04:50:45;;;;;;;6.47;5.37;;;;;;;;;;5034252;28;20304;-63
2023/04/10 04:53:13;;;;;;;6.43;5.47;;;;;;;;;;5050018;28;20262;-63
2023/04/10 04:55:41;;;;;;;6.27;5.67;;;;;;;;;;5038346;28;20213;-64
2023/04/10 04:58:08;;;;;;;6.23;5.50;;;;;;;;;;5043411;28;20245;-62
2023/04/10 05:00:35;;;;;;;5.43;4.73;;;;;;;;;;5046413;28;21187;-63
2023/04/10 05:03:04;;;;;;;6.00;5.37;;;;;;;;;;5048685;28;20232;-63
2023/04/10 05:05:32;;;;;;;6.83;5.60;;;;;;;;;;5051686;28;20203;-64
2023/04/10 05:08:00;;;;;;;5.50;5.00;;;;;;;;;;5059239;28;20238;-64
2023/04/10 05:10:27;;;;;;;7.00;5.90;;;;;;;;;;5037709;28;20694;-64
2023/04/10 05:12:54;;;;;;;7.60;6.80;;;;;;;;;;5053424;28;20252;-64
2023/04/10 05:15:22;;;;;;;6.83;6.13;;;;;;;;;;5028490;28;20204;-63
2023/04/10 05:17:51;;;;;;;7.33;6.00;;;;;;;;;;5048355;28;20223;-62
2023/04/10 05:20:20;;;;;;;5.97;5.37;;;;;;;;;;5048736;28;20279;-63
2023/04/10 05:22:48;;;;;;;5.97;5.37;;;;;;;;;;5048757;28;20220;-64
2023/04/10 05:25:16;;;;;;;5.67;5.07;;;;;;;;;;5046334;28;21689;-63
2023/04/10 05:27:43;;;;;;;6.23;5.10;;;;;;;;;;5034126;28;20358;-63
2023/04/10 05:30:11;;;;;;;6.90;5.87;;;;;;;;;;5045844;28;20367;-65
2023/04/10 05:32:39;;;;;;;5.80;5.20;;;;;;;;;;5051367;28;20223;-63
2023/04/10 05:35:07;;;;;;;5.57;4.87;;;;;;;;;;5056722;28;22060;-63
2023/04/10 05:37:35;;;;;;;5.63;5.13;;;;;;;;;;5049399;28;20303;-64
2023/04/10 05:40:03;;;;;;;6.37;5.63;;;;;;;;;;5066711;28;21160;-63
2023/04/10 05:42:30;;;;;;;6.37;5.80;;;;;;;;;;5052770;28;20286;-65
2023/04/10 05:44:57;;;;;;;6.70;5.73;;;;;;;;;;5059175;28;20354;-64
2023/04/10 05:47:25;;;;;;;6.63;5.53;;;;;;;;;;5052868;28;21589;-65
2023/04/10 05:49:53;;;;;;;6.43;5.83;;;;;;;;;;5069030;28;20225;-64
2023/04/10 05:52:20;;;;;;;6.83;6.03;;;;;;;;;;5056812;28;20220;-64
2023/04/10 05:54:48;;;;;;;6.60;5.90;;;;;;;;;;5069550;28;20225;-62
2023/04/10 05:57:15;;;;;;;31.23;20.37;;;;;;;;;;5061474;28;24277;-63
2023/04/10 05:59:42;;;;;;;108.53;62.83;;;;;;;;;;5067748;28;20309;-65
2023/04/10 06:02:10;;;;;;;85.57;49.07;;;;;;;;;;5051421;28;20671;-64
2023/04/10 06:04:38;;;;;;;17.93;11.70;;;;;;;;;;5050598;28;20265;-64
2023/04/10 06:07:06;;;;;;;18.90;13.20;;;;;;;;;;5045602;28;20213;-64
2023/04/10 06:09:34;;;;;;;19.57;15.67;;;;;;;;;;5049346;28;20315;-63
2023/04/10 06:12:02;;;;;;;8.27;6.90;;;;;;;;;;5057224;28;20201;-65
2023/04/10 06:14:29;;;;;;;7.33;6.33;;;;;;;;;;5067442;28;20205;-62
2023/04/10 06:16:57;;;;;;;9.40;7.07;;;;;;;;;;5071722;28;20233;-64
2023/04/10 06:19:24;;;;;;;10.13;7.47;;;;;;;;;;5068914;28;20294;-62
2023/04/10 06:21:51;;;;;;;7.40;6.37;;;;;;;;;;5069481;28;20294;-64
2023/04/10 06:24:20;;;;;;;8.50;6.67;;;;;;;;;;5056878;28;20211;-64
2023/04/10 06:26:48;;;;;;;6.70;6.00;;;;;;;;;;5076144;28;20208;-64
2023/04/10 06:29:15;;;;;;;13.77;9.63;;;;;;;;;;5077594;28;20233;-64
2023/04/10 06:31:43;;;;;;;9.07;6.97;;;;;;;;;;5079231;28;20679;-64
2023/04/10 06:34:11;;;;;;;9.37;7.37;;;;;;;;;;5074570;28;20262;-62
2023/04/10 06:36:39;;;;;;;14.17;9.60;;;;;;;;;;5070483;28;20215;-63
2023/04/10 06:39:07;;;;;;;15.50;10.37;;;;;;;;;;5079378;28;20307;-62
2023/04/10 06:41:35;;;;;;;9.73;7.90;;;;;;;;;;5051728;28;20283;-63
2023/04/10 06:44:02;;;;;;;7.20;6.23;;;;;;;;;;5061242;28;22195;-62
2023/04/10 06:46:30;;;;;;;6.30;5.33;;;;;;;;;;5060651;28;20196;-64
2023/04/10 06:48:58;;;;;;;6.97;5.80;;;;;;;;;;5039984;28;20224;-63
2023/04/10 06:51:26;;;;;;;6.40;5.70;;;;;;;;;;5061100;28;20201;-63
2023/04/10 06:53:54;;;;;;;7.17;6.33;;;;;;;;;;5060243;28;20201;-64
2023/04/10 06:56:21;;;;;;;6.93;6.23;;;;;;;;;;5070659;28;20212;-62
2023/04/10 06:58:49;;;;;;;6.77;6.00;;;;;;;;;;5050896;28;20265;-64
2023/04/10 07:01:16;;;;;;;5.47;4.93;;;;;;;;;;5048117;28;20252;-63
2023/04/10 07:03:44;;;;;;;6.00;5.33;;;;;;;;;;5054987;28;20203;-63
2023/04/10 07:06:12;;;;;;;6.03;5.43;;;;;;;;;;5057930;28;20201;-62
2023/04/10 07:08:39;;;;;;;6.67;5.90;;;;;;;;;;5042649;28;20232;-63
2023/04/10 07:11:07;;;;;;;5.37;4.87;;;;;;;;;;5043144;28;21214;-66
2023/04/10 07:13:37;;;;;;;7.03;6.20;;;;;;;;;;5058145;28;20236;-64
2023/04/10 07:16:05;;;;;;;5.17;4.67;;;;;;;;;;5065758;28;20205;-63
2023/04/10 07:18:32;;;;;;;5.63;5.13;;;;;;;;;;5060046;28;20245;-63
2023/04/10 07:21:01;;;;;;;8.67;7.77;;;;;;;;;;5052875;28;20212;-63
2023/04/10 07:23:28;;;;;;;6.37;5.77;;;;;;;;;;5049204;28;20301;-64
2023/04/10 07:25:57;;;;;;;6.17;4.87;;;;;;;;;;5056321;28;20706;-63
2023/04/10 07:28:25;;;;;;;4.87;4.33;;;;;;;;;;5051495;28;20789;-63
2023/04/10 07:30:53;;;;;;;5.37;4.70;;;;;;;;;;5065592;28;20686;-65
2023/04/10 07:33:21;;;;;;;5.20;4.70;;;;;;;;;;5045916;28;20216;-65
2023/04/10 07:35:49;;;;;;;11.17;8.07;;;;;;;;;;5047394;28;20216;-65
2023/04/10 07:38:16;;;;;;;4.90;4.40;;;;;;;;;;5051249;28;20213;-65
2023/04/10 07:40:44;;;;;;;4.47;4.03;;;;;;;;;;5047955;28;20208;-62
2023/04/10 07:43:12;;;;;;;4.50;4.10;;;;;;;;;;5054866;28;20247;-63
2023/04/10 07:45:40;;;;;;;5.20;4.70;;;;;;;;;;5061110;28;20213;-63
2023/04/10 07:48:08;;;;;;;4.47;4.07;;;;;;;;;;5033731;28;20212;-62
2023/04/10 07:50:35;;;;;;;5.10;4.13;;;;;;;;;;5048338;28;20343;-61
2023/04/10 07:53:06;;;;;;;4.13;3.73;;;;;;;;;;5042375;28;20309;-62
2023/04/10 07:55:41;;;;;;;4.33;3.80;;;;;;;;;;5034703;28;20213;-63
2023/04/10 07:58:09;;;;;;;4.20;3.80;;;;;;;;;;5048809;28;20805;-63
2023/04/10 08:00:37;;;;;;;4.63;4.17;;;;;;;;;;5046657;28;20374;-62
2023/04/10 08:03:05;;;;;;;3.87;3.50;;;;;;;;;;5034243;28;20602;-62
2023/04/10 08:05:33;;;;;;;4.97;4.13;;;;;;;;;;5044935;28;20201;-63
2023/04/10 08:08:00;;;;;;;3.47;3.17;;;;;;;;;;5041802;28;21510;-63
2023/04/10 08:10:28;;;;;;;4.27;3.87;;;;;;;;;;5034565;28;21790;-65
2023/04/10 08:12:56;;;;;;;4.77;4.27;;;;;;;;;;5037092;28;20205;-64
2023/04/10 08:15:23;;;;;;;4.70;4.30;;;;;;;;;;5042163;28;21226;-64
2023/04/10 08:17:51;;;;;;;4.40;4.00;;;;;;;;;;5046350;28;20213;-62
2023/04/10 08:20:19;;;;;;;4.43;4.03;;;;;;;;;;5061125;28;20237;-65
2023/04/10 08:22:46;;;;;;;3.80;3.50;;;;;;;;;;5051508;28;20311;-62
2023/04/10 08:25:14;;;;;;;4.93;4.43;;;;;;;;;;5066378;28;20255;-62
2023/04/10 08:27:42;;;;;;;3.90;3.60;;;;;;;;;;5067956;28;20215;-62
2023/04/10 08:30:11;;;;;;;4.10;3.70;;;;;;;;;;5058478;28;20241;-63
2023/04/10 08:32:40;;;;;;;4.20;3.80;;;;;;;;;;5031021;28;20335;-62
2023/04/10 08:35:07;;;;;;;3.63;3.33;;;;;;;;;;5046108;28;20219;-63
2023/04/10 08:37:35;;;;;;;3.70;3.40;;;;;;;;;;5050518;28;20205;-62
2023/04/10 08:40:03;;;;;;;4.03;3.63;;;;;;;;;;5038314;28;20220;-63
2023/04/10 08:42:30;;;;;;;3.43;3.13;;;;;;;;;;5024502;28;20232;-65
2023/04/10 08:45:01;;;;;;;3.77;3.43;;;;;;;;;;5050613;28;20219;-65
2023/04/10 08:47:29;;;;;;;3.27;3.07;;;;;;;;;;5044453;28;20228;-63
2023/04/10 08:49:57;;;;;;;3.17;2.87;;;;;;;;;;5022940;28;20231;-63
2023/04/10 08:52:30;;;;;;;3.10;2.90;;;;;;;;;;5041679;28;20209;-63
2023/04/10 08:54:59;;;;;;;3.60;3.30;;;;;;;;;;5050317;28;20540;-63
2023/04/10 08:57:29;;;;;;;3.40;3.10;;;;;;;;;;5047218;28;20240;-63
2023/04/10 08:59:59;;;;;;;3.60;3.30;;;;;;;;;;5044800;28;20655;-63
2023/04/10 09:02:33;;;;;;;2.90;2.70;;;;;;;;;;5043546;28;20325;-63
2023/04/10 09:05:04;;;;;;;3.50;3.20;;;;;;;;;;5070455;28;20214;-63
2023/04/10 09:07:32;;;;;;;3.50;3.20;;;;;;;;;;5050838;28;20205;-63
2023/04/10 09:10:00;;;;;;;3.33;3.03;;;;;;;;;;5050478;28;20309;-62
2023/04/10 09:12:27;;;;;;;3.30;3.00;;;;;;;;;;5057959;28;20212;-62
2023/04/10 09:14:56;;;;;;;3.10;2.90;;;;;;;;;;5033455;28;20224;-64
2023/04/10 09:17:24;;;;;;;3.60;3.30;;;;;;;;;;5059354;28;20262;-63
2023/04/10 09:19:52;;;;;;;3.87;3.43;;;;;;;;;;5050132;28;20225;-64
2023/04/10 09:22:30;;;;;;;3.17;2.90;;;;;;;;;;5064611;28;20848;-65
2023/04/10 09:24:59;;;;;;;3.00;2.80;;;;;;;;;;5065214;28;20209;-64
2023/04/10 09:27:30;;;;;;;3.30;3.00;;;;;;;;;;5063734;28;20216;-65
2023/04/10 09:29:58;;;;;;;3.83;3.53;;;;;;;;;;5066536;28;20224;-62
2023/04/10 09:32:35;;;;;;;3.23;2.93;;;;;;;;;;5058349;28;20236;-64
2023/04/10 09:35:04;;;;;;;2.90;2.70;;;;;;;;;;5044470;28;20566;-64
2023/04/10 09:37:35;;;;;;;3.20;2.90;;;;;;;;;;5049303;28;20715;-63
2023/04/10 09:40:03;;;;;;;2.70;2.50;;;;;;;;;;5059865;28;20750;-64
2023/04/10 09:42:38;;;;;;;2.90;2.70;;;;;;;;;;5070812;28;20225;-63
2023/04/10 09:45:06;;;;;;;2.60;2.40;;;;;;;;;;5055781;28;20232;-64
2023/04/10 09:47:33;;;;;;;2.57;2.37;;;;;;;;;;5074324;28;20247;-63
2023/04/10 09:50:01;;;;;;;2.87;2.67;;;;;;;;;;5061612;28;20221;-64
2023/04/10 09:52:37;;;;;;;2.10;2.00;;;;;;;;;;5050325;28;20235;-63
2023/04/10 09:55:06;;;;;;;3.50;3.20;;;;;;;;;;5068756;28;21806;-64
2023/04/10 09:57:34;;;;;;;2.80;2.60;;;;;;;;;;5059561;28;20703;-64
2023/04/10 10:00:04;;;;;;;2.70;2.50;;;;;;;;;;5064448;28;20980;-64
2023/04/10 10:02:35;;;;;;;3.00;2.80;;;;;;;;;;5064358;28;20313;-63
2023/04/10 10:05:04;;;;;;;3.70;3.40;;;;;;;;;;5054910;28;20205;-64
2023/04/10 10:07:32;;;;;;;3.63;3.33;;;;;;;;;;5068174;28;20242;-63
2023/04/10 10:10:00;;;;;;;3.40;3.10;;;;;;;;;;5069824;28;20383;-65
2023/04/10 10:12:35;;;;;;;3.13;2.93;;;;;;;;;;5056357;28;20205;-64
2023/04/10 10:15:12;;;;;;;3.10;2.90;;;;;;;;;;5058066;28;20204;-63
2023/04/10 10:17:50;;;;;;;3.07;2.87;;;;;;;;;;5064331;28;20216;-64
2023/04/10 10:20:22;;;;;;;3.07;2.87;;;;;;;;;;5056134;28;20236;-65
2023/04/10 10:22:50;;;;;;;3.30;3.00;;;;;;;;;;5081914;28;20228;-63
2023/04/10 10:25:21;;;;;;;3.67;3.37;;;;;;;;;;5059973;28;20213;-64
2023/04/10 10:27:49;;;;;;;3.90;3.20;;;;;;;;;;5071007;28;20288;-64
2023/04/10 10:30:16;;;;;;;4.33;3.10;;;;;;;;;;5052752;28;20728;-64
2023/04/10 10:32:58;;;;;;;6.67;5.60;;;;;;;;;;5074324;28;20659;-65
2023/04/10 10:35:26;;;;;;;4.67;4.27;;;;;;;;;;5060473;28;20301;-64
2023/04/10 10:37:58;;;;;;;3.75;3.45;;;;;;;;;;5057027;28;20216;-65
2023/04/10 10:40:48;;;;;;;4.28;3.88;;;;;;;;;;5051263;28;20224;-64
2023/04/10 10:43:33;;;;;;;4.87;4.03;;;;;;;;;;5060788;28;20236;-65
2023/04/10 10:46:02;;;;;;;3.10;2.90;;;;;;;;;;5058620;28;20224;-64
2023/04/10 10:48:30;;;;;;;3.33;3.03;;;;;;;;;;5048501;28;20233;-65
2023/04/10 10:51:00;;;;;;;3.67;3.38;;;;;;;;;;5056492;28;20205;-64
2023/04/10 10:53:32;;;;;;;3.03;2.83;;;;;;;;;;5054437;28;20216;-64
2023/04/10 10:56:25;;;;;;;2.95;2.75;;;;;;;;;;5057493;28;20267;-65
2023/04/10 10:58:56;;;;;;;3.47;3.17;;;;;;;;;;5054624;28;20229;-64
2023/04/10 11:01:25;;;;;;;2.90;2.70;;;;;;;;;;5042027;28;20219;-64
2023/04/10 11:03:52;;;;;;;4.05;3.30;;;;;;;;;;5049628;28;23966;-64
2023/04/10 11:06:21;;;;;;;3.20;2.90;;;;;;;;;;5047353;28;20213;-64
2023/04/10 11:08:51;;;;;;;2.80;2.60;;;;;;;;;;5026735;28;20587;-64
2023/04/10 11:11:23;;;;;;;2.63;2.42;;;;;;;;;;5023301;28;20209;-64
2023/04/10 11:13:59;;;;;;;3.38;3.08;;;;;;;;;;5039911;28;20201;-64
2023/04/10 11:16:47;;;;;;;3.22;2.90;;;;;;;;;;5038963;28;20304;-64
2023/04/10 11:19:18;;;;;;;2.67;2.50;;;;;;;;;;5013243;28;20312;-62
2023/04/10 11:22:03;;;;;;;3.40;3.10;;;;;;;;;;5042865;28;20210;-63
2023/04/10 11:24:50;;;;;;;3.00;2.80;;;;;;;;;;5055053;28;20284;-63
2023/04/10 11:27:37;;;;;;;3.58;3.28;;;;;;;;;;5067824;28;20209;-64
2023/04/10 11:30:24;;;;;;;4.10;3.70;;;;;;;;;;5066136;28;20231;-65
2023/04/10 11:32:52;;;;;;;3.97;3.30;;;;;;;;;;5056794;28;20224;-62
2023/04/10 11:35:21;;;;;;;7.22;5.30;;;;;;;;;;5056943;28;20220;-63
2023/04/10 11:37:52;;;;;;;3.70;3.40;;;;;;;;;;5055656;28;21629;-63
2023/04/10 11:40:20;;;;;;;2.80;2.60;;;;;;;;;;5061272;28;20225;-63
2023/04/10 11:42:47;;;;;;;2.95;2.72;;;;;;;;;;5063841;28;20236;-64
2023/04/10 11:45:25;;;;;;;2.85;2.65;;;;;;;;;;5057965;28;20836;-62
2023/04/10 11:47:54;;;;;;;3.95;3.63;;;;;;;;;;5055660;28;20233;-65
2023/04/10 11:50:31;;;;;;;2.63;2.42;;;;;;;;;;5047376;28;20313;-64
2023/04/10 11:52:58;;;;;;;2.00;1.90;;;;;;;;;;5050724;28;20213;-64
2023/04/10 11:55:37;;;;;;;2.70;2.50;;;;;;;;;;5059518;28;20301;-62
2023/04/10 11:58:21;;;;;;;2.45;2.25;;;;;;;;;;5047794;28;20213;-63
2023/04/10 12:00:58;;;;;;;2.50;1.83;;;;;;;;;;5065821;28;20240;-62
2023/04/10 12:03:32;;;;;;;2.30;2.20;;;;;;;;;;5053071;28;20239;-62
2023/04/10 12:06:02;;;;;;;3.22;2.92;;;;;;;;;;5055660;28;20196;-63
2023/04/10 12:08:30;;;;;;;3.45;3.15;;;;;;;;;;5051039;28;20735;-63
2023/04/10 12:10:59;;;;;;;3.30;3.10;;;;;;;;;;5077113;28;20209;-64
2023/04/10 12:13:27;;;;;;;2.03;1.83;;;;;;;;;;5074054;28;20724;-63
2023/04/10 12:15:58;;;;;;;2.05;1.88;;;;;;;;;;5049598;28;22158;-63
2023/04/10 12:18:28;;;;;;;2.17;1.98;;;;;;;;;;5070942;28;20710;-64
2023/04/10 12:20:57;;;;;;;2.08;1.98;;;;;;;;;;5071764;28;20209;-62
2023/04/10 12:23:26;;;;;;;2.15;2.05;;;;;;;;;;5047418;28;20872;-64
2023/04/10 12:26:06;;;;;;;2.03;1.92;;;;;;;;;;5053268;28;20201;-64
2023/04/10 12:28:34;;;;;;;2.78;2.58;;;;;;;;;;5046339;28;20224;-64
2023/04/10 12:31:02;;;;;;;4.55;2.45;;;;;;;;;;5068124;28;20210;-64
2023/04/10 12:33:31;;;;;;;2.65;2.50;;;;;;;;;;5051320;28;20587;-64
2023/04/10 12:36:00;;;;;;;2.42;2.25;;;;;;;;;;5043130;28;20216;-63
2023/04/10 12:38:41;;;;;;;2.10;2.00;;;;;;;;;;5072977;28;20235;-64
2023/04/10 12:41:10;;;;;;;2.55;2.35;;;;;;;;;;5078663;28;20274;-65
2023/04/10 12:43:41;;;;;;;2.25;2.05;;;;;;;;;;5065553;28;20229;-63
2023/04/10 12:46:10;;;;;;;4.55;2.20;;;;;;;;;;5065758;28;20472;-63
2023/04/10 12:48:39;;;;;;;2.88;2.58;;;;;;;;;;5062768;28;20341;-64
2023/04/10 12:51:10;;;;;;;2.80;2.60;;;;;;;;;;5067133;28;20283;-62
2023/04/10 12:53:45;;;;;;;2.50;2.30;;;;;;;;;;5065890;28;20300;-63
2023/04/10 12:56:13;;;;;;;2.70;2.50;;;;;;;;;;5060606;28;20209;-64
2023/04/10 12:58:41;;;;;;;3.05;2.85;;;;;;;;;;5064723;28;20270;-65
2023/04/10 13:01:09;;;;;;;2.30;2.20;;;;;;;;;;5064409;28;20244;-63
2023/04/10 13:03:37;;;;;;;2.50;2.30;;;;;;;;;;5051476;28;20224;-63
2023/04/10 13:06:06;;;;;;;2.45;2.25;;;;;;;;;;5050067;28;20319;-62
2023/04/10 13:08:36;;;;;;;2.10;1.98;;;;;;;;;;5050149;28;20235;-62
2023/04/10 13:11:05;;;;;;;3.22;2.40;;;;;;;;;;5064503;28;20209;-62
2023/04/10 13:13:33;;;;;;;2.50;2.30;;;;;;;;;;5039160;28;20212;-65
2023/04/10 13:16:01;;;;;;;2.50;2.35;;;;;;;;;;5071461;28;20201;-65
2023/04/10 13:18:28;;;;;;;2.47;2.28;;;;;;;;;;5047622;28;20253;-65
2023/04/10 13:20:56;;;;;;;3.00;2.70;;;;;;;;;;5061410;28;20290;-65
2023/04/10 13:23:23;;;;;;;2.85;2.65;;;;;;;;;;5065107;28;20249;-64
2023/04/10 13:25:52;;;;;;;2.72;2.53;;;;;;;;;;5060709;28;20233;-64
2023/04/10 13:28:20;;;;;;;2.65;2.45;;;;;;;;;;5065720;28;20221;-64
2023/04/10 13:30:48;;;;;;;3.45;3.15;;;;;;;;;;5067942;28;20225;-64
2023/04/10 13:33:15;;;;;;;2.55;2.35;;;;;;;;;;5068200;28;20214;-64
2023/04/10 13:35:43;;;;;;;2.47;2.28;;;;;;;;;;5065901;28;20208;-64
2023/04/10 13:38:11;;;;;;;2.60;2.40;;;;;;;;;;5059826;28;20829;-63
2023/04/10 13:40:38;;;;;;;2.53;2.20;;;;;;;;;;5067120;28;20448;-65
2023/04/10 13:43:06;;;;;;;2.83;2.63;;;;;;;;;;5052756;28;20531;-66
2023/04/10 13:45:34;;;;;;;4.72;2.22;;;;;;;;;;5069212;28;20208;-65
2023/04/10 13:48:02;;;;;;;2.38;2.22;;;;;;;;;;5079875;28;20201;-66
2023/04/10 13:50:30;;;;;;;2.05;1.95;;;;;;;;;;5082245;28;20743;-64
2023/04/10 13:52:57;;;;;;;2.22;2.13;;;;;;;;;;5059117;28;20228;-65
2023/04/10 13:55:25;;;;;;;1.80;1.70;;;;;;;;;;5048855;28;20208;-66
2023/04/10 13:57:52;;;;;;;2.20;2.08;;;;;;;;;;5039172;28;20487;-64
2023/04/10 14:00:20;;;;;;;1.80;1.70;;;;;;;;;;5046842;28;20236;-65
2023/04/10 14:02:47;;;;;;;2.20;1.92;;;;;;;;;;5056730;28;20697;-65
2023/04/10 14:05:15;;;;;;;1.98;1.88;;;;;;;;;;5038213;28;20710;-65
2023/04/10 14:07:43;;;;;;;1.80;1.70;;;;;;;;;;5060498;28;20207;-65
2023/04/10 14:10:10;;;;;;;1.80;1.70;;;;;;;;;;5040230;28;20230;-64
2023/04/10 14:12:37;;;;;;;1.85;1.70;;;;;;;;;;5057846;28;20236;-65
2023/04/10 14:15:06;;;;;;;1.88;1.77;;;;;;;;;;5070626;28;20201;-65
2023/04/10 14:17:33;;;;;;;1.85;1.73;;;;;;;;;;5060503;28;20225;-65
2023/04/10 14:20:01;;;;;;;1.58;1.48;;;;;;;;;;5065778;28;20220;-65
2023/04/10 14:22:30;;;;;;;1.55;1.45;;;;;;;;;;5068243;28;20664;-65
2023/04/10 14:24:57;;;;;;;1.65;1.55;;;;;;;;;;5061360;28;20224;-65
2023/04/10 14:27:38;;;;;;;1.77;1.67;;;;;;;;;;5058117;28;20213;-65
2023/04/10 14:30:06;;;;;;;1.73;1.60;;;;;;;;;;5061366;28;20259;-65
2023/04/10 14:32:33;;;;;;;1.67;1.58;;;;;;;;;;5060694;28;20578;-65
2023/04/10 14:35:01;;;;;;;1.67;1.58;;;;;;;;;;5046832;28;20323;-66
2023/04/10 14:37:28;;;;;;;1.48;1.38;;;;;;;;;;5048221;28;20210;-65
2023/04/10 14:39:56;;;;;;;4.40;4.00;;;;;;;;;;5065267;28;20614;-65
2023/04/10 14:42:23;;;;;;;2.25;2.15;;;;;;;;;;5059526;28;20300;-65
2023/04/10 14:44:50;;;;;;;2.42;2.22;;;;;;;;;;5040677;28;20302;-65
2023/04/10 14:47:18;;;;;;;2.08;1.92;;;;;;;;;;5038618;28;20297;-66
2023/04/10 14:49:45;;;;;;;2.63;1.50;;;;;;;;;;5035539;28;20346;-65
2023/04/10 14:52:13;;;;;;;1.95;1.85;;;;;;;;;;5065263;28;20254;-65